createdAt,value
2018-07-01T00:01:58.072Z,99341.61
2018-07-01T00:04:28.452Z,99354.38
2018-07-01T00:06:59.226Z,99358.59
2018-07-01T00:09:29.705Z,99366.14
2018-07-01T00:12:00.117Z,99363.70
2018-07-01T00:14:31.023Z,99360.77
2018-07-01T00:17:01.558Z,99355.78
2018-07-01T00:19:32.575Z,99365.80
2018-07-01T00:22:03.462Z,99362.67
2018-07-01T00:24:34.029Z,99364.17
2018-07-01T00:27:04.349Z,99363.08
2018-07-01T00:29:35.075Z,99348.89
2018-07-01T00:32:05.461Z,99369.89
2018-07-01T00:34:36.110Z,99343.88
2018-07-01T00:37:07.187Z,99367.92
2018-07-01T00:39:37.675Z,99360.78
2018-07-01T00:42:08.437Z,99361.39
2018-07-01T00:44:39.324Z,99362.50
2018-07-01T00:47:09.684Z,99361.45
2018-07-01T00:49:44.994Z,99363.88
2018-07-01T00:52:15.738Z,99364.44
2018-07-01T00:54:46.376Z,99362.07
2018-07-01T00:57:16.941Z,99367.56
2018-07-01T00:59:47.442Z,99374.20
2018-07-01T01:02:18.320Z,99367.82
2018-07-01T01:04:49.253Z,99373.54
2018-07-01T01:07:19.789Z,99369.06
2018-07-01T01:10:04.336Z,99379.09
2018-07-01T01:12:35.122Z,99372.88
2018-07-01T01:15:05.945Z,99370.15
2018-07-01T01:17:35.997Z,99348.52
2018-07-01T01:20:06.773Z,99362.66
2018-07-01T01:22:38.118Z,99367.13
2018-07-01T01:25:08.324Z,99368.91
2018-07-01T01:27:38.627Z,99356.59
2018-07-01T01:30:09.441Z,99350.00
2018-07-01T01:32:40.587Z,99374.53
2018-07-01T01:35:12.190Z,99373.95
2018-07-01T01:37:43.060Z,99377.09
2018-07-01T01:40:15.055Z,99375.37
2018-07-01T01:42:52.586Z,99352.39
2018-07-01T01:45:43.009Z,99371.15
2018-07-01T01:48:22.042Z,99359.76
2018-07-01T01:50:59.012Z,99365.53
2018-07-01T01:54:34.533Z,99362.59
2018-07-01T01:57:12.453Z,99365.17
2018-07-01T01:59:47.341Z,99370.69
2018-07-01T02:03:24.198Z,99365.36
2018-07-01T02:05:59.942Z,99371.19
2018-07-01T02:08:35.068Z,99368.37
2018-07-01T02:11:05.737Z,99367.25
2018-07-01T02:13:38.037Z,99378.38
2018-07-01T02:16:11.754Z,99380.00
2018-07-01T02:18:42.508Z,99383.86
2018-07-01T02:21:13.217Z,99388.04
2018-07-01T02:23:50.514Z,99393.52
2018-07-01T02:26:21.490Z,99384.04
2018-07-01T02:28:52.051Z,99395.45
2018-07-01T02:31:22.705Z,99398.06
2018-07-01T02:33:53.226Z,99384.59
2018-07-01T02:36:24.357Z,99390.94
2018-07-01T02:38:56.401Z,99392.07
2018-07-01T02:41:27.287Z,99395.47
2018-07-01T02:43:57.855Z,99396.04
2018-07-01T02:46:28.521Z,99397.78
2018-07-01T02:48:59.105Z,99399.00
2018-07-01T02:51:29.482Z,99389.99
2018-07-01T02:54:00.267Z,99391.42
2018-07-01T02:56:30.966Z,99401.30
2018-07-01T02:59:01.620Z,99396.68
2018-07-01T03:01:32.391Z,99401.42
2018-07-01T03:04:02.809Z,99400.41
2018-07-01T03:06:33.593Z,99395.49
2018-07-01T03:09:04.789Z,99397.22
2018-07-01T03:11:35.445Z,99392.96
2018-07-01T03:14:06.114Z,99389.21
2018-07-01T03:16:37.053Z,99400.56
2018-07-01T03:19:07.720Z,99390.52
2018-07-01T03:21:38.536Z,99366.77
2018-07-01T03:24:09.569Z,99395.67
2018-07-01T03:26:39.992Z,99396.92
2018-07-01T03:29:10.821Z,99378.53
2018-07-01T03:31:41.706Z,99398.59
2018-07-01T03:34:12.333Z,99409.66
2018-07-01T03:36:42.845Z,99403.01
2018-07-01T03:39:13.366Z,99410.44
2018-07-01T03:41:44.400Z,99406.59
2018-07-01T03:44:15.211Z,99412.55
2018-07-01T03:46:45.763Z,99410.52
2018-07-01T03:49:16.978Z,99416.61
2018-07-01T03:51:47.873Z,99420.84
2018-07-01T03:54:18.281Z,99430.28
2018-07-01T03:56:49.369Z,99415.44
2018-07-01T03:59:20.242Z,99434.88
2018-07-01T04:01:50.610Z,99430.62
2018-07-01T04:04:21.375Z,99419.45
2018-07-01T04:06:51.718Z,99435.91
2018-07-01T04:09:22.191Z,99431.34
2018-07-01T04:11:52.706Z,99429.92
2018-07-01T04:14:23.597Z,99432.38
2018-07-01T04:16:54.056Z,99433.28
2018-07-01T04:19:29.949Z,99419.23
2018-07-01T04:22:01.251Z,99446.84
2018-07-01T04:24:31.914Z,99442.16
2018-07-01T04:27:02.404Z,99441.42
2018-07-01T04:29:33.653Z,99443.52
2018-07-01T04:32:04.622Z,99441.95
2018-07-01T04:34:35.131Z,99445.96
2018-07-01T04:37:05.885Z,99442.57
2018-07-01T04:39:36.333Z,99438.99
2018-07-01T04:42:07.139Z,99426.84
2018-07-01T04:44:37.681Z,99441.68
2018-07-01T04:47:08.057Z,99446.28
2018-07-01T04:49:38.953Z,99445.88
2018-07-01T04:52:09.355Z,99444.56
2018-07-01T04:54:39.829Z,99453.30
2018-07-01T04:57:10.340Z,99457.92
2018-07-01T04:59:41.067Z,99459.36
2018-07-01T05:02:11.425Z,99466.38
2018-07-01T05:04:42.126Z,99466.97
2018-07-01T05:07:13.114Z,99430.18
2018-07-01T05:09:43.562Z,99460.19
2018-07-01T05:12:14.110Z,99467.22
2018-07-01T05:14:44.973Z,99471.20
2018-07-01T05:17:15.552Z,99472.67
2018-07-01T05:19:46.302Z,99469.73
2018-07-01T05:22:17.890Z,99470.62
2018-07-01T05:24:48.497Z,99468.16
2018-07-01T05:27:19.022Z,99467.00
2018-07-01T05:29:49.694Z,99465.22
2018-07-01T05:32:20.165Z,99474.34
2018-07-01T05:34:50.765Z,99466.63
2018-07-01T05:37:25.961Z,99471.84
2018-07-01T05:39:56.497Z,99470.06
2018-07-01T05:42:27.081Z,99469.30
2018-07-01T05:44:58.112Z,99465.91
2018-07-01T05:47:28.599Z,99470.83
2018-07-01T05:49:59.713Z,99474.83
2018-07-01T05:52:30.550Z,99469.48
2018-07-01T05:55:01.137Z,99459.48
2018-07-01T05:57:32.026Z,99463.52
2018-07-01T06:00:02.525Z,99461.16
2018-07-01T06:02:38.207Z,99461.34
2018-07-01T06:05:10.789Z,99472.74
2018-07-01T06:07:41.241Z,99457.14
2018-07-01T06:12:47.213Z,99465.45
2018-07-01T06:15:18.312Z,99457.79
2018-07-01T06:17:48.778Z,99454.23
2018-07-01T06:20:19.265Z,99461.39
2018-07-01T06:22:50.214Z,99459.77
2018-07-01T06:25:20.694Z,99457.20
2018-07-01T06:27:51.232Z,99447.25
2018-07-01T06:30:21.757Z,99461.92
2018-07-01T06:32:52.519Z,99463.98
2018-07-01T06:35:27.209Z,99463.90
2018-07-01T06:37:57.621Z,99463.90
2018-07-01T06:40:28.026Z,99468.83
2018-07-01T06:42:58.541Z,99465.08
2018-07-01T06:45:29.341Z,99470.83
2018-07-01T06:47:59.830Z,99465.23
2018-07-01T06:50:30.223Z,99454.14
2018-07-01T06:53:01.182Z,99464.52
2018-07-01T06:55:34.973Z,99467.59
2018-07-01T06:58:05.661Z,99468.99
2018-07-01T07:00:36.797Z,99469.49
2018-07-01T07:03:07.272Z,99469.87
2018-07-01T07:05:37.818Z,99474.56
2018-07-01T07:08:08.893Z,99466.25
2018-07-01T07:10:39.541Z,99470.86
2018-07-01T07:13:09.934Z,99469.05
2018-07-01T07:15:41.005Z,99470.05
2018-07-01T07:18:11.411Z,99458.76
2018-07-01T07:20:42.085Z,99474.67
2018-07-01T07:23:12.586Z,99476.42
2018-07-01T07:25:42.741Z,99476.19
2018-07-01T07:28:13.755Z,99455.39
2018-07-01T07:30:43.819Z,99469.97
2018-07-01T07:33:14.326Z,99467.53
2018-07-01T07:35:44.738Z,99473.61
2018-07-01T07:38:15.268Z,99464.06
2018-07-01T07:40:45.770Z,99477.48
2018-07-01T07:43:16.632Z,99456.36
2018-07-01T07:45:46.669Z,99455.06
2018-07-01T07:48:17.139Z,99455.55
2018-07-01T07:50:48.068Z,99453.28
2018-07-01T07:53:19.281Z,99457.44
2018-07-01T07:55:49.473Z,99445.19
2018-07-01T07:58:20.152Z,99381.33
2018-07-01T08:00:50.413Z,99448.08
2018-07-01T08:03:20.811Z,99466.48
2018-07-01T08:05:51.239Z,99450.02
2018-07-01T08:08:21.836Z,99450.00
2018-07-01T08:10:53.474Z,99449.95
2018-07-01T08:13:25.565Z,99451.34
2018-07-01T08:15:55.665Z,99442.14
2018-07-01T08:18:27.386Z,99443.08
2018-07-01T08:20:57.469Z,99439.09
2018-07-01T08:23:27.869Z,99448.52
2018-07-01T08:25:58.397Z,99431.66
2018-07-01T08:28:29.006Z,99445.53
2018-07-01T08:30:59.213Z,99429.94
2018-07-01T08:33:29.636Z,99444.46
2018-07-01T08:35:59.725Z,99425.19
2018-07-01T08:38:30.273Z,99443.55
2018-07-01T08:41:01.715Z,99436.80
2018-07-01T08:43:31.841Z,99447.58
2018-07-01T08:46:02.029Z,99440.12
2018-07-01T08:48:32.353Z,99447.50
2018-07-01T08:51:02.525Z,99442.94
2018-07-01T08:53:32.721Z,99451.58
2018-07-01T08:56:03.109Z,99452.38
2018-07-01T08:58:33.170Z,99454.27
2018-07-01T09:01:03.913Z,99456.05
2018-07-01T09:03:34.257Z,99456.36
2018-07-01T09:06:04.811Z,99447.84
2018-07-01T09:08:35.220Z,99449.75
2018-07-01T09:11:06.118Z,99455.97
2018-07-01T09:13:36.193Z,99441.70
2018-07-01T09:16:06.546Z,99438.03
2018-07-01T09:18:37.045Z,99441.02
2018-07-01T09:21:07.169Z,99443.02
2018-07-01T09:23:37.283Z,99440.73
2018-07-01T09:26:08.005Z,99445.59
2018-07-01T09:28:38.166Z,99440.82
2018-07-01T09:31:08.738Z,99437.31
2018-07-01T09:33:39.578Z,99439.32
2018-07-01T09:36:13.685Z,99416.07
2018-07-01T09:38:44.329Z,99448.52
2018-07-01T09:41:14.424Z,99442.27
2018-07-01T09:43:44.489Z,99448.23
2018-07-01T09:46:14.950Z,99422.03
2018-07-01T09:48:44.973Z,99445.49
2018-07-01T09:51:15.493Z,99432.11
2018-07-01T09:53:45.890Z,99448.09
2018-07-01T09:56:16.343Z,99440.02
2018-07-01T09:58:46.468Z,99442.76
2018-07-01T10:01:16.785Z,99440.36
2018-07-01T10:03:46.845Z,99453.47
2018-07-01T10:06:17.062Z,99448.72
2018-07-01T10:08:47.777Z,99442.30
2018-07-01T10:11:17.817Z,99433.92
2018-07-01T10:13:47.916Z,99453.70
2018-07-01T10:16:18.925Z,99439.41
2018-07-01T10:18:49.491Z,99442.45
2018-07-01T10:21:19.695Z,99396.72
2018-07-01T10:23:51.921Z,99384.92
2018-07-01T10:26:22.036Z,99453.27
2018-07-01T10:29:10.881Z,99395.56
2018-07-01T10:31:42.777Z,99430.94
2018-07-01T10:34:13.761Z,99442.48
2018-07-01T10:36:44.006Z,99435.83
2018-07-01T10:39:17.193Z,99433.41
2018-07-01T10:41:47.539Z,99430.72
2018-07-01T10:44:17.621Z,99448.69
2018-07-01T10:46:48.249Z,99423.31
2018-07-01T10:49:18.520Z,99411.69
2018-07-01T10:51:53.064Z,99406.02
2018-07-01T10:54:23.927Z,99409.69
2018-07-01T10:56:54.021Z,99396.00
2018-07-01T10:59:24.192Z,99405.23
2018-07-01T11:01:55.263Z,99406.06
2018-07-01T11:04:25.572Z,99386.70
2018-07-01T11:06:55.981Z,99430.86
2018-07-01T11:09:26.424Z,99429.57
2018-07-01T11:11:56.633Z,99403.95
2018-07-01T11:14:26.768Z,99410.50
2018-07-01T11:16:57.399Z,99390.88
2018-07-01T11:19:27.441Z,99414.57
2018-07-01T11:21:57.604Z,99412.61
2018-07-01T11:24:28.785Z,99415.69
2018-07-01T11:26:59.087Z,99404.58
2018-07-01T11:29:30.025Z,99360.64
2018-07-01T11:32:00.337Z,99376.84
2018-07-01T11:34:30.493Z,99414.02
2018-07-01T11:37:00.748Z,99406.61
2018-07-01T11:39:31.692Z,99407.29
2018-07-01T11:42:03.883Z,99393.78
2018-07-01T11:44:34.045Z,99400.63
2018-07-01T11:47:04.631Z,99405.45
2018-07-01T11:49:35.321Z,99387.80
2018-07-01T11:52:05.442Z,99406.36
2018-07-01T11:54:35.695Z,99401.88
2018-07-01T11:57:05.923Z,99357.38
2018-07-01T11:59:36.105Z,99390.28
2018-07-01T12:02:06.405Z,99385.37
2018-07-01T12:04:36.581Z,99352.06
2018-07-01T12:07:06.816Z,99382.58
2018-07-01T12:09:36.908Z,99398.63
2018-07-01T12:12:07.826Z,99357.08
2018-07-01T12:14:38.213Z,99369.89
2018-07-01T12:17:08.354Z,99373.47
2018-07-01T12:19:38.455Z,99372.73
2018-07-01T12:22:09.359Z,99380.91
2018-07-01T12:24:39.653Z,99388.29
2018-07-01T12:27:10.141Z,99375.34
2018-07-01T12:29:41.100Z,99361.13
2018-07-01T12:32:11.182Z,99357.28
2018-07-01T12:34:41.255Z,99366.67
2018-07-01T12:37:11.633Z,99371.55
2018-07-01T12:39:41.738Z,99368.56
2018-07-01T12:42:12.405Z,99373.89
2018-07-01T12:44:43.113Z,99325.88
2018-07-01T12:47:13.428Z,99357.62
2018-07-01T12:49:43.482Z,99352.10
2018-07-01T12:52:14.125Z,99353.55
2018-07-01T12:54:45.010Z,99347.13
2018-07-01T12:57:15.638Z,99352.52
2018-07-01T12:59:46.501Z,99348.38
2018-07-01T13:02:16.889Z,99322.80
2018-07-01T13:04:47.042Z,99320.44
2018-07-01T13:07:17.471Z,99342.85
2018-07-01T13:09:47.542Z,99324.50
2018-07-01T13:12:17.595Z,99347.83
2018-07-01T13:14:48.082Z,99334.08
2018-07-01T13:17:19.066Z,99343.53
2018-07-01T13:19:49.177Z,99321.53
2018-07-01T13:22:19.836Z,99340.77
2018-07-01T13:24:49.912Z,99325.54
2018-07-01T13:27:20.038Z,99336.58
2018-07-01T13:29:50.429Z,99335.36
2018-07-01T13:32:20.677Z,99333.34
2018-07-01T13:34:50.745Z,99324.58
2018-07-01T13:37:21.190Z,99319.08
2018-07-01T13:39:51.306Z,99330.09
2018-07-01T13:42:21.437Z,99326.84
2018-07-01T13:44:52.037Z,99325.92
2018-07-01T13:47:22.493Z,99317.20
2018-07-01T13:49:52.563Z,99322.61
2018-07-01T13:52:22.967Z,99323.82
2018-07-01T13:54:53.135Z,99314.08
2018-07-01T13:57:23.244Z,99322.03
2018-07-01T13:59:53.612Z,99324.49
2018-07-01T14:02:23.654Z,99304.02
2018-07-01T14:04:58.885Z,99324.27
2018-07-01T14:07:29.349Z,99324.37
2018-07-01T14:09:59.430Z,99337.71
2018-07-01T14:12:29.534Z,99325.64
2018-07-01T14:14:59.911Z,99319.91
2018-07-01T14:17:30.112Z,99324.68
2018-07-01T14:20:00.402Z,99327.81
2018-07-01T14:22:30.868Z,99326.44
2018-07-01T14:25:01.101Z,99325.07
2018-07-01T14:27:31.241Z,99322.36
2018-07-01T14:30:01.634Z,99315.63
2018-07-01T14:32:31.810Z,99308.22
2018-07-01T14:35:02.295Z,99305.83
2018-07-01T14:37:32.799Z,99307.09
2018-07-01T14:40:03.381Z,99311.08
2018-07-01T14:42:33.473Z,99314.02
2018-07-01T14:45:03.815Z,99307.83
2018-07-01T14:47:34.201Z,99298.87
2018-07-01T14:50:04.452Z,99296.73
2018-07-01T14:52:35.857Z,99293.98
2018-07-01T14:55:06.381Z,99295.34
2018-07-01T14:57:36.814Z,99295.98
2018-07-01T15:00:07.844Z,99297.92
2018-07-01T15:02:38.408Z,99302.67
2018-07-01T15:05:08.909Z,99289.36
2018-07-01T15:07:39.537Z,99262.30
2018-07-01T15:10:09.674Z,99282.33
2018-07-01T15:12:39.797Z,99287.63
2018-07-01T15:15:10.766Z,99285.27
2018-07-01T15:17:41.300Z,99273.41
2018-07-01T15:20:11.442Z,99266.14
2018-07-01T15:22:42.258Z,99274.00
2018-07-01T15:25:12.354Z,99271.33
2018-07-01T15:27:42.389Z,99252.17
2018-07-01T15:30:14.255Z,99255.67
2018-07-01T15:32:44.374Z,99273.58
2018-07-01T15:35:14.769Z,99264.94
2018-07-01T15:37:45.137Z,99274.06
2018-07-01T15:40:15.258Z,99273.14
2018-07-01T15:42:45.597Z,99263.38
2018-07-01T15:45:15.977Z,99257.80
2018-07-01T15:47:46.069Z,99267.45
2018-07-01T15:50:16.097Z,99268.59
2018-07-01T15:52:47.086Z,99262.41
2018-07-01T15:55:17.163Z,99269.28
2018-07-01T15:57:47.230Z,99267.80
2018-07-01T16:00:17.661Z,99257.17
2018-07-01T16:02:48.173Z,99256.88
2018-07-01T16:05:19.269Z,99237.67
2018-07-01T16:07:49.597Z,99258.88
2018-07-01T16:10:19.674Z,99257.42
2018-07-01T16:12:49.778Z,99261.18
2018-07-01T16:15:20.182Z,99263.17
2018-07-01T16:17:50.325Z,99254.47
2018-07-01T16:20:20.539Z,99263.77
2018-07-01T16:22:50.959Z,99277.98
2018-07-01T16:25:25.967Z,99260.94
2018-07-01T16:28:01.131Z,99256.28
2018-07-01T16:30:31.239Z,99256.14
2018-07-01T16:33:01.321Z,99261.08
2018-07-01T16:35:32.110Z,99255.44
2018-07-01T16:38:02.254Z,99239.77
2018-07-01T16:40:32.681Z,99246.34
2018-07-01T16:43:03.094Z,99236.25
2018-07-01T16:45:33.175Z,99252.21
2018-07-01T16:48:03.527Z,99249.06
2018-07-01T16:50:33.925Z,99248.55
2018-07-01T16:53:04.642Z,99250.58
2018-07-01T16:55:34.717Z,99246.24
2018-07-01T16:58:05.194Z,99243.70
2018-07-01T17:00:35.365Z,99241.95
2018-07-01T17:05:45.242Z,99243.48
2018-07-01T17:08:15.319Z,99252.59
2018-07-01T17:10:45.365Z,99241.27
2018-07-01T17:13:15.673Z,99247.23
2018-07-01T17:15:45.777Z,99252.55
2018-07-01T17:18:15.861Z,99251.23
2018-07-01T17:20:46.209Z,99251.05
2018-07-01T17:23:16.281Z,99250.19
2018-07-01T17:25:51.381Z,99247.94
2018-07-01T17:28:26.905Z,99248.03
2018-07-01T17:31:01.811Z,99246.56
2018-07-01T17:33:34.195Z,99242.79
2018-07-01T17:36:04.321Z,99244.55
2018-07-01T17:38:34.533Z,99247.42
2018-07-01T17:41:05.042Z,99247.23
2018-07-01T17:43:35.102Z,99189.89
2018-07-01T17:46:05.239Z,99237.61
2018-07-01T17:48:35.777Z,99248.19
2018-07-01T17:51:05.898Z,99249.41
2018-07-01T17:53:46.098Z,99236.13
2018-07-01T17:56:16.712Z,99250.45
2018-07-01T17:58:47.001Z,99249.13
2018-07-01T18:01:17.357Z,99241.32
2018-07-01T18:03:47.750Z,99247.41
2018-07-01T18:06:17.857Z,99233.69
2018-07-01T18:08:47.921Z,99244.89
2018-07-01T18:11:21.182Z,99246.81
2018-07-01T18:13:51.269Z,99246.73
2018-07-01T18:16:22.489Z,99249.95
2018-07-01T18:18:52.910Z,99248.36
2018-07-01T18:21:23.229Z,99242.20
2018-07-01T18:24:11.129Z,99243.09
2018-07-01T18:26:25.762Z,99249.98
2018-07-01T18:29:05.470Z,99238.18
2018-07-01T18:31:27.051Z,99258.56
2018-07-01T18:34:00.113Z,99252.71
2018-07-01T18:36:30.327Z,99257.14
2018-07-01T18:39:00.699Z,99240.00
2018-07-01T18:41:31.441Z,99253.66
2018-07-01T18:44:01.918Z,99256.41
2018-07-01T18:46:32.353Z,99256.42
2018-07-01T18:49:02.475Z,99245.94
2018-07-01T18:51:32.526Z,99244.55
2018-07-01T18:54:03.925Z,99250.06
2018-07-01T18:56:34.428Z,99254.33
2018-07-01T18:59:04.545Z,99239.38
2018-07-01T19:01:35.289Z,99257.62
2018-07-01T19:04:05.535Z,99252.53
2018-07-01T19:06:35.609Z,99254.36
2018-07-01T19:09:07.686Z,99248.11
2018-07-01T19:11:37.767Z,99262.77
2018-07-01T19:14:07.882Z,99260.23
2018-07-01T19:16:38.230Z,99263.20
2018-07-01T19:19:08.332Z,99250.75
2018-07-01T19:21:38.643Z,99266.89
2018-07-01T19:24:09.401Z,99269.33
2018-07-01T19:26:39.534Z,99264.59
2018-07-01T19:29:09.601Z,99254.68
2018-07-01T19:31:39.937Z,99259.38
2018-07-01T19:34:11.154Z,99243.20
2018-07-01T19:36:41.549Z,99273.89
2018-07-01T19:39:12.510Z,99264.94
2018-07-01T19:41:43.522Z,99261.31
2018-07-01T19:44:14.126Z,99276.02
2018-07-01T19:46:44.347Z,99252.68
2018-07-01T19:49:15.333Z,99265.58
2018-07-01T19:51:45.955Z,99277.75
2018-07-01T19:54:15.969Z,99275.35
2018-07-01T19:56:46.191Z,99260.03
2018-07-01T19:59:16.583Z,99282.65
2018-07-01T20:01:46.831Z,99281.10
2018-07-01T20:04:17.733Z,99275.61
2018-07-01T20:06:48.098Z,99286.42
2018-07-01T20:09:18.209Z,99277.86
2018-07-01T20:11:48.341Z,99279.33
2018-07-01T20:14:18.708Z,99283.96
2018-07-01T20:16:48.889Z,99283.36
2018-07-01T20:19:18.943Z,99268.63
2018-07-01T20:21:49.284Z,99269.55
2018-07-01T20:24:19.346Z,99274.56
2018-07-01T20:26:49.405Z,99278.28
2018-07-01T20:30:43.761Z,99278.13
2018-07-01T20:33:13.833Z,99271.77
2018-07-01T20:35:48.453Z,99282.41
2018-07-01T20:38:18.694Z,99289.31
2018-07-01T20:40:49.414Z,99286.88
2018-07-01T20:43:19.564Z,99283.66
2018-07-01T20:45:49.869Z,99292.45
2018-07-01T20:48:20.380Z,99278.59
2018-07-01T20:50:50.617Z,99283.90
2018-07-01T20:53:20.818Z,99283.59
2018-07-01T20:55:51.178Z,99268.87
2018-07-01T20:58:21.285Z,99282.19
2018-07-01T21:00:51.401Z,99280.87
2018-07-01T21:03:21.752Z,99283.39
2018-07-01T21:05:51.893Z,99279.30
2018-07-01T21:08:25.036Z,99287.75
2018-07-01T21:10:55.633Z,99286.00
2018-07-01T21:13:25.777Z,99285.06
2018-07-01T21:15:56.810Z,99269.33
2018-07-01T21:18:27.268Z,99271.59
2018-07-01T21:20:59.367Z,99281.47
2018-07-01T21:23:29.449Z,99268.58
2018-07-01T21:25:59.913Z,99280.39
2018-07-01T21:28:29.973Z,99266.58
2018-07-01T21:31:00.109Z,99271.23
2018-07-01T21:33:30.471Z,99289.77
2018-07-01T21:36:00.669Z,99278.97
2018-07-01T21:38:30.840Z,99289.31
2018-07-01T21:41:01.308Z,99294.86
2018-07-01T21:43:31.973Z,99297.33
2018-07-01T21:46:02.240Z,99290.42
2018-07-01T21:48:32.940Z,99297.36
2018-07-01T21:51:03.619Z,99278.38
2018-07-01T21:53:33.801Z,99284.25
2018-07-01T21:56:04.660Z,99295.53
2018-07-01T21:58:35.390Z,99297.95
2018-07-01T22:01:07.281Z,99296.33
2018-07-01T22:03:37.434Z,99302.47
2018-07-01T22:06:08.868Z,99299.15
2018-07-01T22:08:39.644Z,99302.73
2018-07-01T22:11:30.905Z,99304.01
2018-07-01T22:14:23.674Z,99302.73
2018-07-01T22:16:53.778Z,99301.97
2018-07-01T22:19:24.377Z,99303.14
2018-07-01T22:21:55.313Z,99298.28
2018-07-01T22:24:29.911Z,99300.96
2018-07-01T22:27:00.385Z,99269.33
2018-07-01T22:29:30.961Z,99299.42
2018-07-01T22:32:02.017Z,99300.17
2018-07-01T22:34:32.495Z,99300.42
2018-07-01T22:37:03.040Z,99289.97
2018-07-01T22:39:33.289Z,99297.84
2018-07-01T22:42:03.797Z,99298.00
2018-07-01T22:44:34.255Z,99288.54
2018-07-01T22:47:04.461Z,99282.94
2018-07-01T22:49:35.613Z,99285.20
2018-07-01T22:52:05.836Z,99270.93
2018-07-01T22:54:36.059Z,99287.52
2018-07-01T22:57:06.669Z,99284.61
2018-07-01T23:03:16.769Z,99279.75
2018-07-01T23:09:09.829Z,99278.53
2018-07-01T23:11:40.648Z,99304.88
2018-07-01T23:14:10.793Z,99288.06
2018-07-01T23:16:41.234Z,99265.47
2018-07-01T23:19:11.734Z,99283.72
2018-07-01T23:21:41.853Z,99279.39
2018-07-01T23:24:12.977Z,99275.54
2018-07-01T23:26:43.209Z,99274.34
2018-07-01T23:29:13.293Z,99277.87
2018-07-01T23:31:43.922Z,99274.26
2018-07-01T23:34:14.348Z,99272.23
2018-07-01T23:36:44.441Z,99265.22
2018-07-01T23:39:14.701Z,99269.11
2018-07-01T23:41:45.685Z,99272.77
2018-07-01T23:44:16.389Z,99257.28
2018-07-01T23:46:46.690Z,99204.61
2018-07-01T23:49:17.031Z,99217.63
2018-07-01T23:51:47.209Z,99253.01
2018-07-01T23:54:17.741Z,99272.55
2018-07-01T23:56:48.570Z,99267.80
2018-07-01T23:59:19.770Z,99269.79
